sensor_id;sensor_type;location;lat;lon;timestamp;temperature;humidity
19031;DHT22;9648;51.130;13.978;2023-06-22T00:00:59;17.40;99.90
19031;DHT22;9648;51.130;13.978;2023-06-22T00:03:26;17.40;99.90
19031;DHT22;9648;51.130;13.978;2023-06-22T00:05:53;17.30;99.90
19031;DHT22;9648;51.130;13.978;2023-06-22T00:08:20;17.30;99.90
19031;DHT22;9648;51.130;13.978;2023-06-22T00:10:48;17.30;99.90
19031;DHT22;9648;51.130;13.978;2023-06-22T00:13:15;17.20;99.90
19031;DHT22;9648;51.130;13.978;2023-06-22T00:15:43;17.20;99.90
19031;DHT22;9648;51.130;13.978;2023-06-22T00:18:10;17.10;99.90
19031;DHT22;9648;51.130;13.978;2023-06-22T00:20:37;17.10;99.90
19031;DHT22;9648;51.130;13.978;2023-06-22T00:23:05;17.10;99.90
19031;DHT22;9648;51.130;13.978;2023-06-22T00:25:34;17.00;99.90
19031;DHT22;9648;51.130;13.978;2023-06-22T00:28:02;17.00;99.90
19031;DHT22;9648;51.130;13.978;2023-06-22T00:30:30;17.00;99.90
19031;DHT22;9648;51.130;13.978;2023-06-22T00:32:58;16.90;99.90
19031;DHT22;9648;51.130;13.978;2023-06-22T00:35:25;16.90;99.90
19031;DHT22;9648;51.130;13.978;2023-06-22T00:37:54;16.90;99.90
19031;DHT22;9648;51.130;13.978;2023-06-22T00:40:26;16.90;99.90
19031;DHT22;9648;51.130;13.978;2023-06-22T00:42:53;16.90;99.90
19031;DHT22;9648;51.130;13.978;2023-06-22T00:45:21;16.90;99.90
19031;DHT22;9648;51.130;13.978;2023-06-22T00:47:50;16.80;99.90
19031;DHT22;9648;51.130;13.978;2023-06-22T00:50:19;16.80;99.90
19031;DHT22;9648;51.130;13.978;2023-06-22T00:52:48;16.80;99.90
19031;DHT22;9648;51.130;13.978;2023-06-22T00:55:18;16.70;99.90
19031;DHT22;9648;51.130;13.978;2023-06-22T00:57:45;16.80;99.90
19031;DHT22;9648;51.130;13.978;2023-06-22T01:00:13;16.70;99.90
19031;DHT22;9648;51.130;13.978;2023-06-22T01:02:43;16.70;99.90
19031;DHT22;9648;51.130;13.978;2023-06-22T01:05:12;16.70;99.90
19031;DHT22;9648;51.130;13.978;2023-06-22T01:07:43;16.70;99.90
19031;DHT22;9648;51.130;13.978;2023-06-22T01:10:18;16.70;99.90
19031;DHT22;9648;51.130;13.978;2023-06-22T01:12:52;16.60;99.90
19031;DHT22;9648;51.130;13.978;2023-06-22T01:15:25;16.60;99.90
19031;DHT22;9648;51.130;13.978;2023-06-22T01:17:56;16.60;99.90
19031;DHT22;9648;51.130;13.978;2023-06-22T01:20:25;16.60;99.90
19031;DHT22;9648;51.130;13.978;2023-06-22T01:23:05;16.60;99.90
19031;DHT22;9648;51.130;13.978;2023-06-22T01:25:47;16.50;99.90
19031;DHT22;9648;51.130;13.978;2023-06-22T01:30:55;16.50;99.90
19031;DHT22;9648;51.130;13.978;2023-06-22T01:33:29;16.50;99.90
19031;DHT22;9648;51.130;13.978;2023-06-22T01:35:57;16.50;99.90
19031;DHT22;9648;51.130;13.978;2023-06-22T01:38:25;16.40;99.90
19031;DHT22;9648;51.130;13.978;2023-06-22T01:40:52;16.40;99.90
19031;DHT22;9648;51.130;13.978;2023-06-22T01:43:20;16.40;99.90
19031;DHT22;9648;51.130;13.978;2023-06-22T01:45:48;16.30;99.90
19031;DHT22;9648;51.130;13.978;2023-06-22T01:48:16;16.30;99.90
19031;DHT22;9648;51.130;13.978;2023-06-22T01:50:43;16.20;99.90
19031;DHT22;9648;51.130;13.978;2023-06-22T01:53:11;16.20;99.90
19031;DHT22;9648;51.130;13.978;2023-06-22T01:55:37;16.20;99.90
19031;DHT22;9648;51.130;13.978;2023-06-22T01:58:04;16.20;99.90
19031;DHT22;9648;51.130;13.978;2023-06-22T02:00:33;16.10;99.90
19031;DHT22;9648;51.130;13.978;2023-06-22T02:03:05;16.10;99.90
19031;DHT22;9648;51.130;13.978;2023-06-22T02:05:38;16.10;99.90
19031;DHT22;9648;51.130;13.978;2023-06-22T02:08:10;16.00;99.90
19031;DHT22;9648;51.130;13.978;2023-06-22T02:10:38;16.00;99.90
19031;DHT22;9648;51.130;13.978;2023-06-22T02:13:07;15.90;99.90
19031;DHT22;9648;51.130;13.978;2023-06-22T02:15:35;16.00;99.90
19031;DHT22;9648;51.130;13.978;2023-06-22T02:18:03;15.90;99.90
19031;DHT22;9648;51.130;13.978;2023-06-22T02:20:30;15.90;99.90
19031;DHT22;9648;51.130;13.978;2023-06-22T02:22:58;15.80;99.90
19031;DHT22;9648;51.130;13.978;2023-06-22T02:25:25;15.80;99.90
19031;DHT22;9648;51.130;13.978;2023-06-22T02:27:52;15.80;99.90
19031;DHT22;9648;51.130;13.978;2023-06-22T02:30:18;15.80;99.90
19031;DHT22;9648;51.130;13.978;2023-06-22T02:32:45;15.70;99.90
19031;DHT22;9648;51.130;13.978;2023-06-22T02:35:12;15.70;99.90
19031;DHT22;9648;51.130;13.978;2023-06-22T02:37:39;15.70;99.90
19031;DHT22;9648;51.130;13.978;2023-06-22T02:40:09;15.70;99.90
19031;DHT22;9648;51.130;13.978;2023-06-22T02:42:36;15.70;99.90
19031;DHT22;9648;51.130;13.978;2023-06-22T02:45:05;15.70;99.90
19031;DHT22;9648;51.130;13.978;2023-06-22T02:47:35;15.70;99.90
19031;DHT22;9648;51.130;13.978;2023-06-22T02:50:02;15.70;99.90
19031;DHT22;9648;51.130;13.978;2023-06-22T02:52:28;15.70;99.90
19031;DHT22;9648;51.130;13.978;2023-06-22T02:54:55;15.70;99.90
19031;DHT22;9648;51.130;13.978;2023-06-22T02:57:23;15.70;99.90
19031;DHT22;9648;51.130;13.978;2023-06-22T02:59:49;15.60;99.90
19031;DHT22;9648;51.130;13.978;2023-06-22T03:02:16;15.60;99.90
19031;DHT22;9648;51.130;13.978;2023-06-22T03:04:44;15.60;99.90
19031;DHT22;9648;51.130;13.978;2023-06-22T03:07:14;15.60;99.90
19031;DHT22;9648;51.130;13.978;2023-06-22T03:09:41;15.60;99.90
19031;DHT22;9648;51.130;13.978;2023-06-22T03:12:08;15.60;99.90
19031;DHT22;9648;51.130;13.978;2023-06-22T03:14:37;15.60;99.90
19031;DHT22;9648;51.130;13.978;2023-06-22T03:17:04;15.60;99.90
19031;DHT22;9648;51.130;13.978;2023-06-22T03:19:31;15.60;99.90
19031;DHT22;9648;51.130;13.978;2023-06-22T03:21:59;15.70;99.90
19031;DHT22;9648;51.130;13.978;2023-06-22T03:24:26;15.60;99.90
19031;DHT22;9648;51.130;13.978;2023-06-22T03:26:55;15.60;99.90
19031;DHT22;9648;51.130;13.978;2023-06-22T03:29:22;15.70;99.90
19031;DHT22;9648;51.130;13.978;2023-06-22T03:31:50;15.70;99.90
19031;DHT22;9648;51.130;13.978;2023-06-22T03:34:17;15.70;99.90
19031;DHT22;9648;51.130;13.978;2023-06-22T03:36:44;15.80;99.90
19031;DHT22;9648;51.130;13.978;2023-06-22T03:39:11;15.80;99.90
19031;DHT22;9648;51.130;13.978;2023-06-22T03:41:38;15.80;99.90
19031;DHT22;9648;51.130;13.978;2023-06-22T03:44:05;15.80;99.90
19031;DHT22;9648;51.130;13.978;2023-06-22T03:46:32;15.90;99.90
19031;DHT22;9648;51.130;13.978;2023-06-22T03:49:00;15.90;99.90
19031;DHT22;9648;51.130;13.978;2023-06-22T03:51:28;16.00;99.90
19031;DHT22;9648;51.130;13.978;2023-06-22T03:53:55;16.00;99.90
19031;DHT22;9648;51.130;13.978;2023-06-22T03:56:22;16.10;99.90
19031;DHT22;9648;51.130;13.978;2023-06-22T03:58:48;16.10;99.90
19031;DHT22;9648;51.130;13.978;2023-06-22T04:01:15;16.10;99.90
19031;DHT22;9648;51.130;13.978;2023-06-22T04:03:43;16.10;99.90
19031;DHT22;9648;51.130;13.978;2023-06-22T04:06:11;16.20;99.90
19031;DHT22;9648;51.130;13.978;2023-06-22T04:08:37;16.20;99.90
19031;DHT22;9648;51.130;13.978;2023-06-22T04:11:04;16.20;99.90
19031;DHT22;9648;51.130;13.978;2023-06-22T04:13:31;16.30;99.90
19031;DHT22;9648;51.130;13.978;2023-06-22T04:15:58;16.40;99.90
19031;DHT22;9648;51.130;13.978;2023-06-22T04:18:26;16.40;99.90
19031;DHT22;9648;51.130;13.978;2023-06-22T04:20:53;16.50;99.90
19031;DHT22;9648;51.130;13.978;2023-06-22T04:23:21;16.50;99.90
19031;DHT22;9648;51.130;13.978;2023-06-22T04:25:48;16.60;99.90
19031;DHT22;9648;51.130;13.978;2023-06-22T04:28:14;16.70;99.90
19031;DHT22;9648;51.130;13.978;2023-06-22T04:30:41;16.70;99.90
19031;DHT22;9648;51.130;13.978;2023-06-22T04:33:12;16.80;99.90
19031;DHT22;9648;51.130;13.978;2023-06-22T04:35:38;16.90;99.90
19031;DHT22;9648;51.130;13.978;2023-06-22T04:38:07;16.90;99.90
19031;DHT22;9648;51.130;13.978;2023-06-22T04:40:35;17.00;99.90
19031;DHT22;9648;51.130;13.978;2023-06-22T04:43:01;17.10;99.90
19031;DHT22;9648;51.130;13.978;2023-06-22T04:45:29;17.10;99.90
19031;DHT22;9648;51.130;13.978;2023-06-22T04:47:55;17.20;99.90
19031;DHT22;9648;51.130;13.978;2023-06-22T04:50:22;17.30;99.90
19031;DHT22;9648;51.130;13.978;2023-06-22T04:52:50;17.40;99.90
19031;DHT22;9648;51.130;13.978;2023-06-22T04:55:16;17.40;99.90
19031;DHT22;9648;51.130;13.978;2023-06-22T04:57:47;17.60;99.90
19031;DHT22;9648;51.130;13.978;2023-06-22T05:00:15;17.60;99.90
19031;DHT22;9648;51.130;13.978;2023-06-22T05:02:44;17.80;99.90
19031;DHT22;9648;51.130;13.978;2023-06-22T05:05:11;17.90;99.90
19031;DHT22;9648;51.130;13.978;2023-06-22T05:07:41;17.90;99.90
19031;DHT22;9648;51.130;13.978;2023-06-22T05:10:10;18.00;99.90
19031;DHT22;9648;51.130;13.978;2023-06-22T05:12:38;18.10;99.90
19031;DHT22;9648;51.130;13.978;2023-06-22T05:15:08;18.20;99.90
19031;DHT22;9648;51.130;13.978;2023-06-22T05:17:35;18.30;99.90
19031;DHT22;9648;51.130;13.978;2023-06-22T05:20:02;18.40;99.90
19031;DHT22;9648;51.130;13.978;2023-06-22T05:22:31;18.60;99.90
19031;DHT22;9648;51.130;13.978;2023-06-22T05:24:58;18.60;99.90
19031;DHT22;9648;51.130;13.978;2023-06-22T05:27:25;18.70;99.90
19031;DHT22;9648;51.130;13.978;2023-06-22T05:29:51;18.80;99.90
19031;DHT22;9648;51.130;13.978;2023-06-22T05:32:19;18.90;99.90
19031;DHT22;9648;51.130;13.978;2023-06-22T05:34:46;18.90;99.90
19031;DHT22;9648;51.130;13.978;2023-06-22T05:37:13;19.00;99.90
19031;DHT22;9648;51.130;13.978;2023-06-22T05:39:39;19.10;99.90
19031;DHT22;9648;51.130;13.978;2023-06-22T05:42:08;19.20;99.90
19031;DHT22;9648;51.130;13.978;2023-06-22T05:44:34;19.30;99.90
19031;DHT22;9648;51.130;13.978;2023-06-22T05:47:03;19.40;99.90
19031;DHT22;9648;51.130;13.978;2023-06-22T05:49:31;19.50;99.90
19031;DHT22;9648;51.130;13.978;2023-06-22T05:51:58;19.60;99.90
19031;DHT22;9648;51.130;13.978;2023-06-22T05:54:27;19.70;99.90
19031;DHT22;9648;51.130;13.978;2023-06-22T05:56:53;19.80;99.90
19031;DHT22;9648;51.130;13.978;2023-06-22T05:59:20;19.90;99.90
19031;DHT22;9648;51.130;13.978;2023-06-22T06:01:47;20.10;99.90
19031;DHT22;9648;51.130;13.978;2023-06-22T06:04:16;20.20;99.90
19031;DHT22;9648;51.130;13.978;2023-06-22T06:06:44;20.30;99.90
19031;DHT22;9648;51.130;13.978;2023-06-22T06:09:12;20.50;99.90
19031;DHT22;9648;51.130;13.978;2023-06-22T06:11:39;20.70;99.90
19031;DHT22;9648;51.130;13.978;2023-06-22T06:14:06;20.80;99.90
19031;DHT22;9648;51.130;13.978;2023-06-22T06:16:32;20.90;99.90
19031;DHT22;9648;51.130;13.978;2023-06-22T06:18:59;21.10;99.90
19031;DHT22;9648;51.130;13.978;2023-06-22T06:21:26;21.20;99.90
19031;DHT22;9648;51.130;13.978;2023-06-22T06:23:54;21.30;99.90
19031;DHT22;9648;51.130;13.978;2023-06-22T06:26:20;21.40;99.90
19031;DHT22;9648;51.130;13.978;2023-06-22T06:28:53;21.50;99.90
19031;DHT22;9648;51.130;13.978;2023-06-22T06:31:20;21.70;99.90
19031;DHT22;9648;51.130;13.978;2023-06-22T06:33:46;21.80;99.90
19031;DHT22;9648;51.130;13.978;2023-06-22T06:36:17;21.90;99.90
19031;DHT22;9648;51.130;13.978;2023-06-22T06:38:43;22.20;99.90
19031;DHT22;9648;51.130;13.978;2023-06-22T06:41:14;22.50;99.90
19031;DHT22;9648;51.130;13.978;2023-06-22T06:43:41;22.90;99.90
19031;DHT22;9648;51.130;13.978;2023-06-22T06:46:09;23.00;99.90
19031;DHT22;9648;51.130;13.978;2023-06-22T06:48:35;23.10;99.90
19031;DHT22;9648;51.130;13.978;2023-06-22T06:51:02;23.10;99.90
19031;DHT22;9648;51.130;13.978;2023-06-22T06:53:29;23.20;99.90
19031;DHT22;9648;51.130;13.978;2023-06-22T06:55:56;23.20;99.90
19031;DHT22;9648;51.130;13.978;2023-06-22T06:58:24;23.20;99.90
19031;DHT22;9648;51.130;13.978;2023-06-22T07:00:50;23.30;99.90
19031;DHT22;9648;51.130;13.978;2023-06-22T07:03:17;23.30;99.90
19031;DHT22;9648;51.130;13.978;2023-06-22T07:05:44;23.20;99.90
19031;DHT22;9648;51.130;13.978;2023-06-22T07:08:10;23.30;99.90
19031;DHT22;9648;51.130;13.978;2023-06-22T07:10:37;23.40;99.90
19031;DHT22;9648;51.130;13.978;2023-06-22T07:13:04;23.50;99.90
19031;DHT22;9648;51.130;13.978;2023-06-22T07:15:32;23.50;99.90
19031;DHT22;9648;51.130;13.978;2023-06-22T07:17:58;23.50;99.90
19031;DHT22;9648;51.130;13.978;2023-06-22T07:20:25;23.40;99.90
19031;DHT22;9648;51.130;13.978;2023-06-22T07:22:52;23.40;99.90
19031;DHT22;9648;51.130;13.978;2023-06-22T07:25:18;23.30;99.90
19031;DHT22;9648;51.130;13.978;2023-06-22T07:27:57;23.40;99.90
19031;DHT22;9648;51.130;13.978;2023-06-22T07:30:24;23.40;99.90
19031;DHT22;9648;51.130;13.978;2023-06-22T07:32:52;23.50;99.90
19031;DHT22;9648;51.130;13.978;2023-06-22T07:35:19;23.60;99.90
19031;DHT22;9648;51.130;13.978;2023-06-22T07:37:46;23.80;99.90
19031;DHT22;9648;51.130;13.978;2023-06-22T07:40:13;23.90;99.90
19031;DHT22;9648;51.130;13.978;2023-06-22T07:42:39;24.00;99.90
19031;DHT22;9648;51.130;13.978;2023-06-22T07:45:12;24.10;99.90
19031;DHT22;9648;51.130;13.978;2023-06-22T07:47:39;24.20;99.90
19031;DHT22;9648;51.130;13.978;2023-06-22T07:50:08;24.30;99.90
19031;DHT22;9648;51.130;13.978;2023-06-22T07:52:34;24.40;99.90
19031;DHT22;9648;51.130;13.978;2023-06-22T07:55:02;24.60;99.90
19031;DHT22;9648;51.130;13.978;2023-06-22T07:57:28;24.80;99.90
19031;DHT22;9648;51.130;13.978;2023-06-22T07:59:59;24.90;99.90
19031;DHT22;9648;51.130;13.978;2023-06-22T08:02:26;25.00;99.90
19031;DHT22;9648;51.130;13.978;2023-06-22T08:04:52;25.00;99.90
19031;DHT22;9648;51.130;13.978;2023-06-22T08:07:20;24.90;99.90
19031;DHT22;9648;51.130;13.978;2023-06-22T08:09:48;24.90;99.90
19031;DHT22;9648;51.130;13.978;2023-06-22T08:12:15;25.00;99.90
19031;DHT22;9648;51.130;13.978;2023-06-22T08:14:43;25.00;99.90
19031;DHT22;9648;51.130;13.978;2023-06-22T08:17:11;25.20;99.90
19031;DHT22;9648;51.130;13.978;2023-06-22T08:19:39;25.20;99.90
19031;DHT22;9648;51.130;13.978;2023-06-22T08:22:06;25.40;99.90
19031;DHT22;9648;51.130;13.978;2023-06-22T08:24:34;25.40;99.90
19031;DHT22;9648;51.130;13.978;2023-06-22T08:27:01;25.50;99.90
19031;DHT22;9648;51.130;13.978;2023-06-22T08:29:27;25.60;99.90
19031;DHT22;9648;51.130;13.978;2023-06-22T08:31:54;25.60;99.90
19031;DHT22;9648;51.130;13.978;2023-06-22T08:34:21;25.70;99.90
19031;DHT22;9648;51.130;13.978;2023-06-22T08:36:53;25.80;99.90
19031;DHT22;9648;51.130;13.978;2023-06-22T08:39:20;25.80;99.90
19031;DHT22;9648;51.130;13.978;2023-06-22T08:41:48;25.80;99.90
19031;DHT22;9648;51.130;13.978;2023-06-22T08:44:18;25.80;99.90
19031;DHT22;9648;51.130;13.978;2023-06-22T08:46:45;25.80;99.90
19031;DHT22;9648;51.130;13.978;2023-06-22T08:49:12;25.90;99.90
19031;DHT22;9648;51.130;13.978;2023-06-22T08:51:38;26.10;99.90
19031;DHT22;9648;51.130;13.978;2023-06-22T08:54:05;26.20;99.90
19031;DHT22;9648;51.130;13.978;2023-06-22T08:56:32;26.30;99.90
19031;DHT22;9648;51.130;13.978;2023-06-22T08:58:59;26.40;99.90
19031;DHT22;9648;51.130;13.978;2023-06-22T09:01:26;26.40;99.90
19031;DHT22;9648;51.130;13.978;2023-06-22T09:03:53;26.50;99.90
19031;DHT22;9648;51.130;13.978;2023-06-22T09:06:23;26.50;99.90
19031;DHT22;9648;51.130;13.978;2023-06-22T09:08:50;26.60;99.90
19031;DHT22;9648;51.130;13.978;2023-06-22T09:11:17;26.70;99.90
19031;DHT22;9648;51.130;13.978;2023-06-22T09:13:44;26.90;99.90
19031;DHT22;9648;51.130;13.978;2023-06-22T09:16:13;27.00;99.90
19031;DHT22;9648;51.130;13.978;2023-06-22T09:18:39;27.20;99.90
19031;DHT22;9648;51.130;13.978;2023-06-22T09:21:07;27.20;99.90
19031;DHT22;9648;51.130;13.978;2023-06-22T09:23:34;27.30;99.90
19031;DHT22;9648;51.130;13.978;2023-06-22T09:26:00;27.30;99.90
19031;DHT22;9648;51.130;13.978;2023-06-22T09:28:29;27.10;99.90
19031;DHT22;9648;51.130;13.978;2023-06-22T09:30:56;27.00;99.90
19031;DHT22;9648;51.130;13.978;2023-06-22T09:33:26;27.00;99.90
19031;DHT22;9648;51.130;13.978;2023-06-22T09:35:53;27.10;99.90
19031;DHT22;9648;51.130;13.978;2023-06-22T09:38:20;27.30;99.90
19031;DHT22;9648;51.130;13.978;2023-06-22T09:40:46;27.30;99.90
19031;DHT22;9648;51.130;13.978;2023-06-22T09:43:13;27.20;99.90
19031;DHT22;9648;51.130;13.978;2023-06-22T09:45:40;27.10;99.90
19031;DHT22;9648;51.130;13.978;2023-06-22T09:48:06;26.80;99.90
19031;DHT22;9648;51.130;13.978;2023-06-22T09:50:36;26.70;99.90
19031;DHT22;9648;51.130;13.978;2023-06-22T09:53:03;26.80;99.90
19031;DHT22;9648;51.130;13.978;2023-06-22T09:55:29;26.80;99.90
19031;DHT22;9648;51.130;13.978;2023-06-22T09:57:56;26.90;99.90
19031;DHT22;9648;51.130;13.978;2023-06-22T10:00:23;26.70;99.90
19031;DHT22;9648;51.130;13.978;2023-06-22T10:02:52;26.60;99.90
19031;DHT22;9648;51.130;13.978;2023-06-22T10:05:18;26.60;99.90
19031;DHT22;9648;51.130;13.978;2023-06-22T10:07:46;26.70;99.90
19031;DHT22;9648;51.130;13.978;2023-06-22T10:10:14;26.80;99.90
19031;DHT22;9648;51.130;13.978;2023-06-22T10:12:46;27.00;99.90
19031;DHT22;9648;51.130;13.978;2023-06-22T10:15:13;27.30;99.90
19031;DHT22;9648;51.130;13.978;2023-06-22T10:17:39;27.30;99.90
19031;DHT22;9648;51.130;13.978;2023-06-22T10:20:07;27.30;99.90
19031;DHT22;9648;51.130;13.978;2023-06-22T10:22:38;27.30;99.90
19031;DHT22;9648;51.130;13.978;2023-06-22T10:25:08;27.20;99.90
19031;DHT22;9648;51.130;13.978;2023-06-22T10:27:36;27.20;99.90
19031;DHT22;9648;51.130;13.978;2023-06-22T10:30:06;27.20;99.90
19031;DHT22;9648;51.130;13.978;2023-06-22T10:32:33;27.30;99.90
19031;DHT22;9648;51.130;13.978;2023-06-22T10:34:59;27.60;99.90
19031;DHT22;9648;51.130;13.978;2023-06-22T10:37:26;27.90;99.90
19031;DHT22;9648;51.130;13.978;2023-06-22T10:39:53;28.10;99.90
19031;DHT22;9648;51.130;13.978;2023-06-22T10:42:21;28.30;99.90
19031;DHT22;9648;51.130;13.978;2023-06-22T10:44:47;28.30;99.90
19031;DHT22;9648;51.130;13.978;2023-06-22T10:47:14;28.20;99.90
19031;DHT22;9648;51.130;13.978;2023-06-22T10:49:41;28.20;99.90
19031;DHT22;9648;51.130;13.978;2023-06-22T10:52:08;28.10;99.90
19031;DHT22;9648;51.130;13.978;2023-06-22T10:54:36;28.00;99.90
19031;DHT22;9648;51.130;13.978;2023-06-22T10:57:03;28.00;99.90
19031;DHT22;9648;51.130;13.978;2023-06-22T10:59:31;28.00;99.90
19031;DHT22;9648;51.130;13.978;2023-06-22T11:01:58;28.20;99.90
19031;DHT22;9648;51.130;13.978;2023-06-22T11:04:25;28.20;99.90
19031;DHT22;9648;51.130;13.978;2023-06-22T11:06:52;28.20;99.90
19031;DHT22;9648;51.130;13.978;2023-06-22T11:09:19;28.40;99.90
19031;DHT22;9648;51.130;13.978;2023-06-22T11:11:46;28.50;99.90
19031;DHT22;9648;51.130;13.978;2023-06-22T11:14:13;28.60;99.90
19031;DHT22;9648;51.130;13.978;2023-06-22T11:16:41;28.70;99.90
19031;DHT22;9648;51.130;13.978;2023-06-22T11:19:08;28.60;98.30
19031;DHT22;9648;51.130;13.978;2023-06-22T11:21:35;28.40;98.40
19031;DHT22;9648;51.130;13.978;2023-06-22T11:24:01;28.30;99.60
19031;DHT22;9648;51.130;13.978;2023-06-22T11:26:28;28.50;99.60
19031;DHT22;9648;51.130;13.978;2023-06-22T11:28:55;28.60;97.60
19031;DHT22;9648;51.130;13.978;2023-06-22T11:31:22;28.60;98.00
19031;DHT22;9648;51.130;13.978;2023-06-22T11:33:50;28.60;97.40
19031;DHT22;9648;51.130;13.978;2023-06-22T11:36:18;28.60;98.60
19031;DHT22;9648;51.130;13.978;2023-06-22T11:38:45;28.70;99.90
19031;DHT22;9648;51.130;13.978;2023-06-22T11:41:11;28.80;99.50
19031;DHT22;9648;51.130;13.978;2023-06-22T11:43:38;29.00;99.90
19031;DHT22;9648;51.130;13.978;2023-06-22T11:46:05;29.20;99.90
19031;DHT22;9648;51.130;13.978;2023-06-22T11:48:32;29.40;99.90
19031;DHT22;9648;51.130;13.978;2023-06-22T11:51:00;29.60;98.70
19031;DHT22;9648;51.130;13.978;2023-06-22T11:53:28;29.70;97.50
19031;DHT22;9648;51.130;13.978;2023-06-22T11:55:55;29.80;95.00
19031;DHT22;9648;51.130;13.978;2023-06-22T11:58:22;29.80;95.10
19031;DHT22;9648;51.130;13.978;2023-06-22T12:00:49;29.90;95.90
19031;DHT22;9648;51.130;13.978;2023-06-22T12:03:17;30.10;93.80
19031;DHT22;9648;51.130;13.978;2023-06-22T12:05:44;30.20;93.10
19031;DHT22;9648;51.130;13.978;2023-06-22T12:08:12;30.40;92.00
19031;DHT22;9648;51.130;13.978;2023-06-22T12:10:39;30.30;90.50
19031;DHT22;9648;51.130;13.978;2023-06-22T12:13:05;30.30;91.00
19031;DHT22;9648;51.130;13.978;2023-06-22T12:15:32;30.10;91.00
19031;DHT22;9648;51.130;13.978;2023-06-22T12:17:59;30.00;87.80
19031;DHT22;9648;51.130;13.978;2023-06-22T12:20:26;29.80;88.70
19031;DHT22;9648;51.130;13.978;2023-06-22T12:22:53;29.50;87.60
19031;DHT22;9648;51.130;13.978;2023-06-22T12:25:23;29.50;89.20
19031;DHT22;9648;51.130;13.978;2023-06-22T12:27:50;29.50;90.30
19031;DHT22;9648;51.130;13.978;2023-06-22T12:30:16;29.50;89.80
19031;DHT22;9648;51.130;13.978;2023-06-22T12:32:43;29.70;90.70
19031;DHT22;9648;51.130;13.978;2023-06-22T12:35:10;29.70;90.20
19031;DHT22;9648;51.130;13.978;2023-06-22T12:37:39;29.90;90.60
19031;DHT22;9648;51.130;13.978;2023-06-22T12:40:07;29.90;90.10
19031;DHT22;9648;51.130;13.978;2023-06-22T12:42:36;29.90;86.30
19031;DHT22;9648;51.130;13.978;2023-06-22T12:45:03;29.80;86.40
19031;DHT22;9648;51.130;13.978;2023-06-22T12:47:30;29.90;90.30
19031;DHT22;9648;51.130;13.978;2023-06-22T12:49:57;29.60;84.00
19031;DHT22;9648;51.130;13.978;2023-06-22T12:52:24;29.50;86.40
19031;DHT22;9648;51.130;13.978;2023-06-22T12:54:50;29.40;86.80
19031;DHT22;9648;51.130;13.978;2023-06-22T12:57:18;29.50;89.70
19031;DHT22;9648;51.130;13.978;2023-06-22T12:59:46;29.50;87.30
19031;DHT22;9648;51.130;13.978;2023-06-22T13:02:12;29.70;89.70
19031;DHT22;9648;51.130;13.978;2023-06-22T13:04:39;29.90;87.90
19031;DHT22;9648;51.130;13.978;2023-06-22T13:07:07;30.00;90.70
19031;DHT22;9648;51.130;13.978;2023-06-22T13:09:33;30.20;85.60
19031;DHT22;9648;51.130;13.978;2023-06-22T13:12:00;30.20;84.90
19031;DHT22;9648;51.130;13.978;2023-06-22T13:14:27;30.10;82.20
19031;DHT22;9648;51.130;13.978;2023-06-22T13:16:54;30.10;86.10
19031;DHT22;9648;51.130;13.978;2023-06-22T13:19:21;30.00;83.20
19031;DHT22;9648;51.130;13.978;2023-06-22T13:21:48;30.00;83.70
19031;DHT22;9648;51.130;13.978;2023-06-22T13:24:14;30.10;84.50
19031;DHT22;9648;51.130;13.978;2023-06-22T13:26:41;30.20;84.90
19031;DHT22;9648;51.130;13.978;2023-06-22T13:29:08;30.20;82.20
19031;DHT22;9648;51.130;13.978;2023-06-22T13:31:35;30.20;82.70
19031;DHT22;9648;51.130;13.978;2023-06-22T13:34:03;30.10;81.10
19031;DHT22;9648;51.130;13.978;2023-06-22T13:36:29;30.10;81.50
19031;DHT22;9648;51.130;13.978;2023-06-22T13:38:57;30.10;82.30
19031;DHT22;9648;51.130;13.978;2023-06-22T13:41:23;30.10;80.60
19031;DHT22;9648;51.130;13.978;2023-06-22T13:43:51;30.00;81.80
19031;DHT22;9648;51.130;13.978;2023-06-22T13:46:18;30.00;82.00
19031;DHT22;9648;51.130;13.978;2023-06-22T13:48:44;30.00;80.20
19031;DHT22;9648;51.130;13.978;2023-06-22T13:51:12;30.00;81.10
19031;DHT22;9648;51.130;13.978;2023-06-22T13:53:39;30.10;80.70
19031;DHT22;9648;51.130;13.978;2023-06-22T13:56:06;30.30;80.70
19031;DHT22;9648;51.130;13.978;2023-06-22T13:58:32;30.40;80.60
19031;DHT22;9648;51.130;13.978;2023-06-22T14:00:59;30.50;78.70
19031;DHT22;9648;51.130;13.978;2023-06-22T14:03:26;30.50;79.60
19031;DHT22;9648;51.130;13.978;2023-06-22T14:05:52;30.60;79.90
19031;DHT22;9648;51.130;13.978;2023-06-22T14:08:23;30.60;76.80
19031;DHT22;9648;51.130;13.978;2023-06-22T14:10:50;30.60;78.30
19031;DHT22;9648;51.130;13.978;2023-06-22T14:13:19;30.60;77.50
19031;DHT22;9648;51.130;13.978;2023-06-22T14:15:45;30.60;76.50
19031;DHT22;9648;51.130;13.978;2023-06-22T14:18:13;30.70;78.20
19031;DHT22;9648;51.130;13.978;2023-06-22T14:20:40;30.60;74.80
19031;DHT22;9648;51.130;13.978;2023-06-22T14:23:07;30.60;76.00
19031;DHT22;9648;51.130;13.978;2023-06-22T14:25:35;30.60;76.10
19031;DHT22;9648;51.130;13.978;2023-06-22T14:28:02;30.70;76.10
19031;DHT22;9648;51.130;13.978;2023-06-22T14:30:28;30.80;75.40
19031;DHT22;9648;51.130;13.978;2023-06-22T14:32:55;30.90;77.00
19031;DHT22;9648;51.130;13.978;2023-06-22T14:35:22;30.90;73.30
19031;DHT22;9648;51.130;13.978;2023-06-22T14:37:49;30.80;72.20
19031;DHT22;9648;51.130;13.978;2023-06-22T14:40:16;30.90;73.90
19031;DHT22;9648;51.130;13.978;2023-06-22T14:42:44;30.90;73.20
19031;DHT22;9648;51.130;13.978;2023-06-22T14:45:12;30.60;72.10
19031;DHT22;9648;51.130;13.978;2023-06-22T14:47:39;30.60;73.30
19031;DHT22;9648;51.130;13.978;2023-06-22T14:50:06;30.50;74.80
19031;DHT22;9648;51.130;13.978;2023-06-22T14:52:32;30.60;77.00
19031;DHT22;9648;51.130;13.978;2023-06-22T14:54:59;30.80;74.50
19031;DHT22;9648;51.130;13.978;2023-06-22T14:57:26;30.80;73.20
19031;DHT22;9648;51.130;13.978;2023-06-22T14:59:54;30.90;73.40
19031;DHT22;9648;51.130;13.978;2023-06-22T15:02:21;31.00;74.10
19031;DHT22;9648;51.130;13.978;2023-06-22T15:04:48;31.20;73.90
19031;DHT22;9648;51.130;13.978;2023-06-22T15:07:14;31.20;70.90
19031;DHT22;9648;51.130;13.978;2023-06-22T15:09:41;31.20;72.30
19031;DHT22;9648;51.130;13.978;2023-06-22T15:12:10;31.30;73.30
19031;DHT22;9648;51.130;13.978;2023-06-22T15:14:38;31.30;71.50
19031;DHT22;9648;51.130;13.978;2023-06-22T15:17:06;31.10;70.80
19031;DHT22;9648;51.130;13.978;2023-06-22T15:19:34;31.10;72.70
19031;DHT22;9648;51.130;13.978;2023-06-22T15:22:02;31.00;72.60
19031;DHT22;9648;51.130;13.978;2023-06-22T15:24:29;31.00;71.80
19031;DHT22;9648;51.130;13.978;2023-06-22T15:26:56;31.00;73.40
19031;DHT22;9648;51.130;13.978;2023-06-22T15:29:22;31.00;72.00
19031;DHT22;9648;51.130;13.978;2023-06-22T15:31:49;31.10;72.50
19031;DHT22;9648;51.130;13.978;2023-06-22T15:34:17;31.30;72.10